createdAt,value
2019-02-11T00:01:01.012Z,5.25
2019-02-11T00:02:02.872Z,5.23
2019-02-11T00:03:12.483Z,5.19
2019-02-11T00:04:34.509Z,5.32
2019-02-11T00:05:13.425Z,5.25
2019-02-11T00:06:30.836Z,5.35
2019-02-11T00:07:31.254Z,5.28
2019-02-11T00:08:33.511Z,5.28
2019-02-11T00:09:43.758Z,5.32
2019-02-11T00:10:53.707Z,5.32
2019-02-11T00:11:51.351Z,5.34
2019-02-11T00:13:10.402Z,5.28
2019-02-11T00:14:15.431Z,5.46
2019-02-11T00:15:09.497Z,5.49
2019-02-11T00:16:22.101Z,5.46
2019-02-11T00:17:04.287Z,5.46
2019-02-11T00:18:32.874Z,5.49
2019-02-11T00:19:36.763Z,5.55
2019-02-11T00:20:28.574Z,5.48
2019-02-11T00:21:58.798Z,5.52
2019-02-11T00:22:55.827Z,5.52
2019-02-11T00:23:54.611Z,5.70
2019-02-11T00:25:39.782Z,5.67
2019-02-11T00:26:55.241Z,5.63
2019-02-11T00:27:59.861Z,5.66
2019-02-11T00:28:42.866Z,5.73
2019-02-11T00:30:07.448Z,5.64
2019-02-11T00:30:47.589Z,5.81
2019-02-11T00:32:02.242Z,5.77
2019-02-11T00:33:06.550Z,5.78
2019-02-11T00:34:55.397Z,5.88
2019-02-11T00:35:59.094Z,5.81
2019-02-11T00:36:48.962Z,5.86
2019-02-11T00:38:07.614Z,5.92
2019-02-11T00:40:01.272Z,6.00
2019-02-11T00:40:54.415Z,6.03
2019-02-11T00:42:17.465Z,5.96
2019-02-11T00:42:52.489Z,6.13
2019-02-11T00:44:03.345Z,6.09
2019-02-11T00:45:50.766Z,6.14
2019-02-11T00:47:03.162Z,6.16
2019-02-11T00:47:54.266Z,6.07
2019-02-11T00:49:27.646Z,6.07
2019-02-11T00:50:04.823Z,6.19
2019-02-11T00:51:17.012Z,6.22
2019-02-11T00:52:02.275Z,6.26
2019-02-11T00:53:22.047Z,6.21
2019-02-11T00:54:32.291Z,6.29
2019-02-11T00:55:29.122Z,6.33
2019-02-11T00:56:34.662Z,6.38
2019-02-11T00:57:43.791Z,6.30
2019-02-11T00:58:52.185Z,6.40
2019-02-11T00:59:45.843Z,6.33
2019-02-11T01:00:47.291Z,6.36
2019-02-11T01:02:15.145Z,6.44
2019-02-11T01:03:18.434Z,6.46
2019-02-11T01:04:04.717Z,6.47
2019-02-11T01:05:29.911Z,6.48
2019-02-11T01:06:37.699Z,6.48
2019-02-11T01:07:31.876Z,6.50
2019-02-11T01:08:30.443Z,6.48
2019-02-11T01:09:47.554Z,6.59
2019-02-11T01:10:58.105Z,6.48
2019-02-11T01:11:44.080Z,6.51
2019-02-11T01:13:09.894Z,6.54
2019-02-11T01:13:54.029Z,6.51
2019-02-11T01:15:22.810Z,6.54
2019-02-11T01:16:22.609Z,6.61
2019-02-11T01:17:15.039Z,6.58
2019-02-11T01:18:14.134Z,6.58
2019-02-11T01:19:28.980Z,6.59
2019-02-11T01:20:37.180Z,6.63
2019-02-11T01:21:37.904Z,6.59
2019-02-11T01:22:40.473Z,6.59
2019-02-11T01:23:51.229Z,6.72
2019-02-11T01:25:10.192Z,6.76
2019-02-11T01:26:13.055Z,6.72
2019-02-11T01:27:04.359Z,6.72
2019-02-11T01:28:09.179Z,6.72
2019-02-11T01:29:14.202Z,6.72
2019-02-11T01:30:20.558Z,6.79
2019-02-11T01:31:28.456Z,6.68
2019-02-11T01:32:25.701Z,6.76
2019-02-11T01:33:35.230Z,6.81
2019-02-11T01:34:44.342Z,6.83
2019-02-11T01:35:41.379Z,6.86
2019-02-11T01:36:47.436Z,6.87
2019-02-11T01:37:56.343Z,6.84
2019-02-11T01:39:12.224Z,6.86
2019-02-11T01:40:11.620Z,6.89
2019-02-11T01:41:08.148Z,6.86
2019-02-11T01:42:31.602Z,6.90
2019-02-11T01:43:37.338Z,6.98
2019-02-11T01:44:35.603Z,6.90
2019-02-11T01:45:39.604Z,6.98
2019-02-11T01:46:37.359Z,6.97
2019-02-11T01:47:42.083Z,6.97
2019-02-11T01:48:57.544Z,7.04
2019-02-11T01:49:52.740Z,7.04
2019-02-11T01:51:12.509Z,7.01
2019-02-11T01:52:08.725Z,6.95
2019-02-11T01:53:16.821Z,7.01
2019-02-11T01:54:22.259Z,7.05
2019-02-11T01:55:18.985Z,7.15
2019-02-11T01:56:38.235Z,7.08
2019-02-11T01:57:45.932Z,7.08
2019-02-11T01:58:40.105Z,7.13
2019-02-11T01:59:50.965Z,7.09
2019-02-11T02:00:51.997Z,7.16
2019-02-11T02:02:07.054Z,7.09
2019-02-11T02:03:16.285Z,7.17
2019-02-11T02:04:12.290Z,7.17
2019-02-11T02:05:14.551Z,7.09
2019-02-11T02:06:29.099Z,7.20
2019-02-11T02:07:27.363Z,7.07
2019-02-11T02:08:28.602Z,7.08
2019-02-11T02:09:40.588Z,7.17
2019-02-11T02:10:38.959Z,7.17
2019-02-11T02:11:43.877Z,7.17
2019-02-11T02:12:56.581Z,7.27
2019-02-11T02:14:02.040Z,7.20
2019-02-11T02:15:04.072Z,7.26
2019-02-11T02:16:10.632Z,7.16
2019-02-11T02:17:17.192Z,7.17
2019-02-11T02:18:16.178Z,7.24
2019-02-11T02:19:23.964Z,7.26
2019-02-11T02:20:28.070Z,7.24
2019-02-11T02:21:31.659Z,7.26
2019-02-11T02:22:47.130Z,7.31
2019-02-11T02:23:45.701Z,7.26
2019-02-11T02:24:51.548Z,7.26
2019-02-11T02:25:57.705Z,7.24
2019-02-11T02:26:59.345Z,7.24
2019-02-11T02:28:11.024Z,7.24
2019-02-11T02:29:10.110Z,7.34
2019-02-11T02:30:18.720Z,7.32
2019-02-11T02:31:22.818Z,7.32
2019-02-11T02:32:25.305Z,7.35
2019-02-11T02:33:43.519Z,7.34
2019-02-11T02:34:40.760Z,7.41
2019-02-11T02:35:45.476Z,7.38
2019-02-11T02:36:57.362Z,7.32
2019-02-11T02:38:01.060Z,7.35
2019-02-11T02:39:05.778Z,7.40
2019-02-11T02:40:09.676Z,7.40
2019-02-11T02:41:17.367Z,7.50
2019-02-11T02:42:23.102Z,7.37
2019-02-11T02:43:26.074Z,7.41
2019-02-11T02:44:28.642Z,7.35
2019-02-11T02:45:38.991Z,7.38
2019-02-11T02:46:51.802Z,7.37
2019-02-11T02:47:50.577Z,7.34
2019-02-11T02:48:54.177Z,7.31
2019-02-11T02:50:07.281Z,7.31
2019-02-11T02:51:08.413Z,7.29
2019-02-11T02:52:11.186Z,7.26
2019-02-11T02:53:14.982Z,7.24
2019-02-11T02:54:28.507Z,7.23
2019-02-11T02:55:28.616Z,7.20
2019-02-11T02:56:32.617Z,7.20
2019-02-11T02:57:44.397Z,7.19
2019-02-11T02:58:48.300Z,7.20
2019-02-11T02:59:53.422Z,7.23
2019-02-11T03:00:53.641Z,7.17
2019-02-11T03:02:03.983Z,7.13
2019-02-11T03:03:06.247Z,7.17
2019-02-11T03:04:16.083Z,7.22
2019-02-11T03:05:13.939Z,7.15
2019-02-11T03:06:34.629Z,7.15
2019-02-11T03:07:30.028Z,7.16
2019-02-11T03:08:37.103Z,7.13
2019-02-11T03:09:38.135Z,7.09
2019-02-11T03:10:47.577Z,7.17
2019-02-11T03:11:48.695Z,7.19
2019-02-11T03:13:01.093Z,7.15
2019-02-11T03:14:05.358Z,7.16
2019-02-11T03:15:11.751Z,7.04
2019-02-11T03:16:16.778Z,7.09
2019-02-11T03:17:13.931Z,7.19
2019-02-11T03:18:23.242Z,7.19
2019-02-11T03:19:30.622Z,7.09
2019-02-11T03:20:36.670Z,7.17
2019-02-11T03:21:34.330Z,7.12
2019-02-11T03:22:47.439Z,7.05
2019-02-11T03:23:57.379Z,7.15
2019-02-11T03:25:00.287Z,7.20
2019-02-11T03:25:56.572Z,7.15
2019-02-11T03:27:11.327Z,7.17
2019-02-11T03:28:11.847Z,7.22
2019-02-11T03:29:19.939Z,7.15
2019-02-11T03:30:31.116Z,7.16
2019-02-11T03:31:29.588Z,7.13
2019-02-11T03:32:38.601Z,7.08
2019-02-11T03:33:40.039Z,7.16
2019-02-11T03:34:52.848Z,7.07
2019-02-11T03:35:51.520Z,7.17
2019-02-11T03:36:57.980Z,7.05
2019-02-11T03:38:03.014Z,7.17
2019-02-11T03:39:06.604Z,7.15
2019-02-11T03:40:13.563Z,7.17
2019-02-11T03:41:23.098Z,7.17
2019-02-11T03:42:26.485Z,7.04
2019-02-11T03:43:22.494Z,7.15
2019-02-11T03:44:38.476Z,7.08
2019-02-11T03:45:38.277Z,7.08
2019-02-11T03:46:44.122Z,7.13
2019-02-11T03:47:57.951Z,7.15
2019-02-11T03:49:01.041Z,7.17
2019-02-11T03:50:02.368Z,7.13
2019-02-11T03:51:07.294Z,7.12
2019-02-11T03:52:11.708Z,7.13
2019-02-11T03:53:17.441Z,7.19
2019-02-11T03:54:34.039Z,7.31
2019-02-11T03:55:33.947Z,7.23
2019-02-11T03:56:30.876Z,7.22
2019-02-11T03:57:39.075Z,7.19
2019-02-11T03:58:49.322Z,7.16
2019-02-11T03:59:53.432Z,7.31
2019-02-11T04:01:07.255Z,7.24
2019-02-11T04:02:09.928Z,7.23
2019-02-11T04:03:14.029Z,7.22
2019-02-11T04:04:17.528Z,7.23
2019-02-11T04:05:24.489Z,7.27
2019-02-11T04:06:29.614Z,7.15
2019-02-11T04:07:28.905Z,7.24
2019-02-11T04:08:38.330Z,7.29
2019-02-11T04:09:39.365Z,7.31
2019-02-11T04:10:46.129Z,7.32
2019-02-11T04:11:57.295Z,7.29
2019-02-11T04:13:03.344Z,7.32
2019-02-11T04:14:13.181Z,7.37
2019-02-11T04:15:06.641Z,7.38
2019-02-11T04:16:11.046Z,7.38
2019-02-11T04:17:21.601Z,7.41
2019-02-11T04:18:29.398Z,7.41
2019-02-11T04:19:34.003Z,7.38
2019-02-11T04:20:35.855Z,7.37
2019-02-11T04:21:49.792Z,7.40
2019-02-11T04:22:39.660Z,7.35
2019-02-11T04:24:09.665Z,7.35
2019-02-11T04:25:05.273Z,7.37
2019-02-11T04:26:03.501Z,7.41
2019-02-11T04:27:14.603Z,7.32
2019-02-11T04:28:09.590Z,7.37
2019-02-11T04:29:24.651Z,7.40
2019-02-11T04:30:26.573Z,7.37
2019-02-11T04:31:38.082Z,7.41
2019-02-11T04:32:35.224Z,7.41
2019-02-11T04:33:49.357Z,7.41
2019-02-11T04:34:44.245Z,7.44
2019-02-11T04:36:00.231Z,7.50
2019-02-11T04:36:54.605Z,7.47
2019-02-11T04:38:03.514Z,7.45
2019-02-11T04:39:08.539Z,7.41
2019-02-11T04:40:20.028Z,7.41
2019-02-11T04:41:23.709Z,7.40
2019-02-11T04:42:27.709Z,7.44
2019-02-11T04:43:30.790Z,7.42
2019-02-11T04:44:41.855Z,7.52
2019-02-11T04:45:52.614Z,7.47
2019-02-11T04:46:54.364Z,7.60
2019-02-11T04:47:48.839Z,7.59
2019-02-11T04:48:52.532Z,7.58
2019-02-11T04:50:07.389Z,7.56
2019-02-11T04:51:13.640Z,7.63
2019-02-11T04:52:16.517Z,7.62
2019-02-11T04:53:28.501Z,7.55
2019-02-11T04:54:29.333Z,7.56
2019-02-11T04:55:30.466Z,7.59
2019-02-11T04:56:38.150Z,7.74
2019-02-11T04:57:44.725Z,8.07
2019-02-11T04:58:41.644Z,8.26
2019-02-11T04:59:54.453Z,8.55
2019-02-11T05:01:06.141Z,8.75
2019-02-11T05:02:13.305Z,8.93
2019-02-11T05:03:05.226Z,8.83
2019-02-11T05:04:15.881Z,8.72
2019-02-11T05:05:15.682Z,8.58
2019-02-11T05:06:33.819Z,8.40
2019-02-11T05:07:31.877Z,8.33
2019-02-11T05:08:37.720Z,8.28
2019-02-11T05:09:41.823Z,8.20
2019-02-11T05:10:47.365Z,8.18
2019-02-11T05:11:54.539Z,8.02
2019-02-11T05:13:06.625Z,7.94
2019-02-11T05:14:31.721Z,7.92
2019-02-11T05:15:14.628Z,7.85
2019-02-11T05:16:07.771Z,7.77
2019-02-11T05:17:22.124Z,7.72
2019-02-11T05:18:26.124Z,7.66
2019-02-11T05:19:31.860Z,7.63
2019-02-11T05:20:40.369Z,7.63
2019-02-11T05:21:50.405Z,7.55
2019-02-11T05:22:51.946Z,7.40
2019-02-11T05:23:54.616Z,7.44
2019-02-11T05:25:03.027Z,7.38
2019-02-11T05:26:17.260Z,7.35
2019-02-11T05:27:11.636Z,7.41
2019-02-11T05:28:16.659Z,7.32
2019-02-11T05:29:25.577Z,7.24
2019-02-11T05:30:31.624Z,7.22
2019-02-11T05:31:40.441Z,7.23
2019-02-11T05:32:37.679Z,7.15
2019-02-11T05:33:42.090Z,7.09
2019-02-11T05:34:51.313Z,7.16
2019-02-11T05:36:01.868Z,7.13
2019-02-11T05:36:59.928Z,7.09
2019-02-11T05:38:10.072Z,7.07
2019-02-11T05:39:22.370Z,6.99
2019-02-11T05:40:22.481Z,6.97
2019-02-11T05:41:23.303Z,6.94
2019-02-11T05:42:29.762Z,6.89
2019-02-11T05:43:29.262Z,6.87
2019-02-11T05:44:40.015Z,6.86
2019-02-11T05:45:45.346Z,6.87
2019-02-11T05:47:04.808Z,6.90
2019-02-11T05:48:06.248Z,6.79
2019-02-11T05:49:00.114Z,6.86
2019-02-11T05:50:02.884Z,6.79
2019-02-11T05:51:18.763Z,6.76
2019-02-11T05:52:19.486Z,6.79
2019-02-11T05:53:25.592Z,6.73
2019-02-11T05:54:24.108Z,6.79
2019-02-11T05:55:37.947Z,6.72
2019-02-11T05:56:36.009Z,6.83
2019-02-11T05:57:51.263Z,6.81
2019-02-11T05:58:59.363Z,6.84
2019-02-11T06:00:02.700Z,6.81
2019-02-11T06:01:15.861Z,6.83
2019-02-11T06:02:08.291Z,6.86
2019-02-11T06:03:11.591Z,6.79
2019-02-11T06:04:25.419Z,6.81
2019-02-11T06:05:24.974Z,6.81
2019-02-11T06:06:32.386Z,6.73
2019-02-11T06:07:37.099Z,6.77
2019-02-11T06:08:49.293Z,6.81
2019-02-11T06:09:50.222Z,6.83
2019-02-11T06:11:02.518Z,6.77
2019-02-11T06:12:06.619Z,6.87
2019-02-11T06:13:08.879Z,6.79
2019-02-11T06:14:15.441Z,6.87
2019-02-11T06:15:22.716Z,6.87
2019-02-11T06:16:17.510Z,6.81
2019-02-11T06:17:26.726Z,6.90
2019-02-11T06:18:41.785Z,6.89
2019-02-11T06:19:39.540Z,6.91
2019-02-11T06:20:53.371Z,6.90
2019-02-11T06:21:54.603Z,6.90
2019-02-11T06:22:55.083Z,6.90
2019-02-11T06:23:51.546Z,6.97
2019-02-11T06:25:09.698Z,6.91
2019-02-11T06:26:13.986Z,6.91
2019-02-11T06:27:13.179Z,6.97
2019-02-11T06:28:24.341Z,6.91
2019-02-11T06:29:38.284Z,6.90
2019-02-11T06:30:33.067Z,6.94
2019-02-11T06:31:40.287Z,6.90
2019-02-11T06:32:44.953Z,6.95
2019-02-11T06:33:48.854Z,6.94
2019-02-11T06:34:56.128Z,7.07
2019-02-11T06:35:59.820Z,6.98
2019-02-11T06:37:06.800Z,7.01
2019-02-11T06:38:22.774Z,6.99
2019-02-11T06:39:16.947Z,7.02
2019-02-11T06:40:24.540Z,7.04
2019-02-11T06:41:31.290Z,7.02
2019-02-11T06:42:46.247Z,7.05
2019-02-11T06:43:48.406Z,7.01
2019-02-11T06:44:54.455Z,7.02
2019-02-11T06:45:49.861Z,7.04
2019-02-11T06:46:48.439Z,7.09
2019-02-11T06:47:56.318Z,7.20
2019-02-11T06:49:12.199Z,7.09
2019-02-11T06:50:17.429Z,7.12
2019-02-11T06:51:23.783Z,7.23
2019-02-11T06:52:19.794Z,7.15
2019-02-11T06:53:30.042Z,7.12
2019-02-11T06:54:34.044Z,7.19
2019-02-11T06:55:37.532Z,7.29
2019-02-11T06:56:46.759Z,7.23
2019-02-11T06:58:02.941Z,7.29
2019-02-11T06:58:57.830Z,7.22
2019-02-11T07:00:05.003Z,7.19
2019-02-11T07:01:06.142Z,7.26
2019-02-11T07:02:13.826Z,7.23
2019-02-11T07:03:27.652Z,7.27
2019-02-11T07:04:23.464Z,7.23
2019-02-11T07:05:42.314Z,7.20
2019-02-11T07:06:40.577Z,7.27
2019-02-11T07:07:38.741Z,7.27
2019-02-11T07:08:55.544Z,7.32
2019-02-11T07:09:47.355Z,7.40
2019-02-11T07:11:01.292Z,7.34
2019-02-11T07:12:06.841Z,7.35
2019-02-11T07:13:03.666Z,7.44
2019-02-11T07:14:11.344Z,7.29
2019-02-11T07:15:21.198Z,7.41
2019-02-11T07:16:44.745Z,7.38
2019-02-11T07:17:41.985Z,7.40
2019-02-11T07:18:36.148Z,7.38
2019-02-11T07:19:53.263Z,7.35
2019-02-11T07:20:48.454Z,7.35
2019-02-11T07:22:03.008Z,7.34
2019-02-11T07:23:08.029Z,7.35
2019-02-11T07:24:09.779Z,7.34
2019-02-11T07:25:08.244Z,7.38
2019-02-11T07:26:18.289Z,7.35
2019-02-11T07:27:20.448Z,7.42
2019-02-11T07:28:31.205Z,7.41
2019-02-11T07:29:39.303Z,7.44
2019-02-11T07:30:40.333Z,7.42
2019-02-11T07:31:49.148Z,7.41
2019-02-11T07:32:49.875Z,7.34
2019-02-11T07:34:01.457Z,7.45
2019-02-11T07:34:59.723Z,7.41
2019-02-11T07:36:05.993Z,7.35
2019-02-11T07:37:15.598Z,7.44
2019-02-11T07:38:13.364Z,7.47
2019-02-11T07:39:20.427Z,7.47
2019-02-11T07:40:30.679Z,7.47
2019-02-11T07:41:33.443Z,7.45
2019-02-11T07:42:37.647Z,7.45
2019-02-11T07:43:41.239Z,7.49
2019-02-11T07:44:54.054Z,7.44
2019-02-11T07:45:53.645Z,7.49
2019-02-11T07:47:03.073Z,7.53
2019-02-11T07:48:02.773Z,7.44
2019-02-11T07:49:13.019Z,7.50
2019-02-11T07:50:14.972Z,7.49
2019-02-11T07:51:16.721Z,7.56
2019-02-11T07:52:32.601Z,7.55
2019-02-11T07:53:32.615Z,7.52
2019-02-11T07:54:36.708Z,7.58
2019-02-11T07:55:48.695Z,7.60
2019-02-11T07:56:53.617Z,7.60
2019-02-11T07:57:55.786Z,7.55
2019-02-11T07:59:08.483Z,7.56
2019-02-11T08:00:10.331Z,7.60
2019-02-11T08:01:18.323Z,7.60
2019-02-11T08:02:32.256Z,7.59
2019-02-11T08:03:13.113Z,7.59
2019-02-11T08:04:32.986Z,7.62
2019-02-11T08:05:35.556Z,7.59
2019-02-11T08:06:35.970Z,7.60
2019-02-11T08:07:44.374Z,7.59
2019-02-11T08:08:43.358Z,7.56
2019-02-11T08:09:54.222Z,7.66
2019-02-11T08:11:06.005Z,7.56
2019-02-11T08:12:03.449Z,7.60
2019-02-11T08:13:07.448Z,7.55
2019-02-11T08:14:15.750Z,7.58
2019-02-11T08:15:25.909Z,7.55
2019-02-11T08:16:31.023Z,7.58
2019-02-11T08:17:33.690Z,7.63
2019-02-11T08:18:35.132Z,7.60
2019-02-11T08:19:39.236Z,7.62
2019-02-11T08:21:02.098Z,7.66
2019-02-11T08:21:54.203Z,7.63
2019-02-11T08:23:17.555Z,7.59
2019-02-11T08:24:01.383Z,7.69
2019-02-11T08:25:06.103Z,7.72
2019-02-11T08:26:09.482Z,7.72
2019-02-11T08:27:31.303Z,7.63
2019-02-11T08:28:19.630Z,7.63
2019-02-11T08:29:57.352Z,7.63
2019-02-11T08:31:01.021Z,7.71
2019-02-11T08:31:53.757Z,7.69
2019-02-11T08:32:54.376Z,7.72
2019-02-11T08:34:11.708Z,7.74
2019-02-11T08:35:05.554Z,7.74
2019-02-11T08:36:09.556Z,7.81
2019-02-11T08:37:19.287Z,7.71
2019-02-11T08:38:20.021Z,7.85
2019-02-11T08:39:21.149Z,7.75
2019-02-11T08:40:33.849Z,7.74
2019-02-11T08:41:31.194Z,7.75
2019-02-11T08:42:38.269Z,7.82
2019-02-11T08:43:52.403Z,7.87
2019-02-11T08:44:42.171Z,7.82
2019-02-11T08:45:52.723Z,7.81
2019-02-11T08:47:07.792Z,7.85
2019-02-11T08:48:04.927Z,7.79
2019-02-11T08:49:13.841Z,7.87
2019-02-11T08:50:33.817Z,7.87
2019-02-11T08:51:26.865Z,7.89
2019-02-11T08:52:18.161Z,7.93
2019-02-11T08:53:34.963Z,7.92
2019-02-11T08:54:45.934Z,7.97
2019-02-11T08:55:57.708Z,8.03
2019-02-11T08:56:57.372Z,8.00
2019-02-11T08:57:51.885Z,8.02
2019-02-11T08:58:57.839Z,8.04
2019-02-11T09:00:05.109Z,8.12
2019-02-11T09:01:19.756Z,8.15
2019-02-11T09:02:28.163Z,8.12
2019-02-11T09:03:18.442Z,8.20
2019-02-11T09:04:25.615Z,8.17
2019-02-11T09:05:28.183Z,8.11
2019-02-11T09:06:46.321Z,8.11
2019-02-11T09:07:45.820Z,8.14
2019-02-11T09:09:00.262Z,8.17
2019-02-11T09:09:50.944Z,8.17
2019-02-11T09:11:05.901Z,8.22
2019-02-11T09:12:06.019Z,8.14
2019-02-11T09:13:20.869Z,8.32
2019-02-11T09:14:19.443Z,8.21
2019-02-11T09:15:35.728Z,8.26
2019-02-11T09:16:33.991Z,8.22
2019-02-11T09:17:31.440Z,8.17
2019-02-11T09:18:41.796Z,8.26
2019-02-11T09:19:40.469Z,8.21
2019-02-11T09:20:42.140Z,8.22
2019-02-11T09:21:52.870Z,8.21
2019-02-11T09:22:57.481Z,8.26
2019-02-11T09:24:21.452Z,8.28
2019-02-11T09:25:10.418Z,8.26
2019-02-11T09:26:13.197Z,8.22
2019-02-11T09:27:15.233Z,8.29
2019-02-11T09:28:34.185Z,8.26
2019-02-11T09:29:38.487Z,8.30
2019-02-11T09:30:43.713Z,8.29
2019-02-11T09:31:56.726Z,8.28
2019-02-11T09:32:50.386Z,8.21
2019-02-11T09:33:46.098Z,8.26
2019-02-11T09:35:07.191Z,8.25
2019-02-11T09:36:00.951Z,8.25
2019-02-11T09:37:14.680Z,8.28
2019-02-11T09:38:26.157Z,8.12
2019-02-11T09:39:41.954Z,8.21
2019-02-11T09:40:28.833Z,8.14
2019-02-11T09:41:40.718Z,8.28
2019-02-11T09:42:41.751Z,8.26
2019-02-11T09:43:47.125Z,8.21
2019-02-11T09:44:51.395Z,8.26
2019-02-11T09:45:53.752Z,8.18
2019-02-11T09:47:14.052Z,8.28
2019-02-11T09:48:05.860Z,8.28
2019-02-11T09:49:16.604Z,8.26
2019-02-11T09:50:22.757Z,8.28
2019-02-11T09:51:33.722Z,8.32
2019-02-11T09:52:27.703Z,8.30
2019-02-11T09:53:31.383Z,8.32
2019-02-11T09:54:40.090Z,8.25
2019-02-11T09:55:41.532Z,8.26
2019-02-11T09:56:50.140Z,8.28
2019-02-11T09:58:01.311Z,8.28
2019-02-11T09:59:06.947Z,8.29
2019-02-11T10:00:14.326Z,8.26
2019-02-11T10:01:13.206Z,8.29
2019-02-11T10:02:21.098Z,8.26
2019-02-11T10:03:30.227Z,8.28
2019-02-11T10:04:35.143Z,8.28
2019-02-11T10:05:38.529Z,8.28
2019-02-11T10:06:47.767Z,8.32
2019-02-11T10:07:50.561Z,8.30
2019-02-11T10:08:54.933Z,8.28
2019-02-11T10:09:54.848Z,8.26
2019-02-11T10:11:00.993Z,8.17
2019-02-11T10:12:21.075Z,8.17
2019-02-11T10:13:13.903Z,8.18
2019-02-11T10:14:33.468Z,8.22
2019-02-11T10:15:27.846Z,8.33
2019-02-11T10:16:34.411Z,8.28
2019-02-11T10:17:48.235Z,8.32
2019-02-11T10:18:36.570Z,8.25
2019-02-11T10:19:44.154Z,8.28
2019-02-11T10:20:53.378Z,8.33
2019-02-11T10:22:04.445Z,8.18
2019-02-11T10:23:09.877Z,8.26
2019-02-11T10:24:14.710Z,8.28
2019-02-11T10:25:16.042Z,8.25
2019-02-11T10:26:17.787Z,8.22
2019-02-11T10:27:27.619Z,8.21
2019-02-11T10:28:29.881Z,8.21
2019-02-11T10:29:47.603Z,8.21
2019-02-11T10:30:39.218Z,8.20
2019-02-11T10:31:56.525Z,8.20
2019-02-11T10:32:44.755Z,8.14
2019-02-11T10:33:56.740Z,8.21
2019-02-11T10:35:05.452Z,8.17
2019-02-11T10:36:21.746Z,8.20
2019-02-11T10:37:22.466Z,8.20
2019-02-11T10:38:27.595Z,8.10
2019-02-11T10:39:29.133Z,8.20
2019-02-11T10:40:41.739Z,8.14
2019-02-11T10:41:39.899Z,8.17
2019-02-11T10:42:37.553Z,8.14
2019-02-11T10:43:50.974Z,8.14
2019-02-11T10:45:08.696Z,8.15
2019-02-11T10:46:02.558Z,8.11
2019-02-11T10:47:13.735Z,8.10
2019-02-11T10:48:16.301Z,8.14
2019-02-11T10:49:18.449Z,8.10
2019-02-11T10:50:24.498Z,8.14
2019-02-11T10:51:31.471Z,8.08
2019-02-11T10:52:42.024Z,8.11
2019-02-11T10:53:41.217Z,8.12
2019-02-11T10:54:51.472Z,8.12
2019-02-11T10:56:02.013Z,8.15
2019-02-11T10:56:56.914Z,8.10
2019-02-11T10:58:11.152Z,8.17
2019-02-11T10:59:01.835Z,8.12
2019-02-11T11:00:23.441Z,8.12
2019-02-11T11:01:28.363Z,8.15
2019-02-11T11:02:19.058Z,8.18
2019-02-11T11:03:25.818Z,8.18
2019-02-11T11:04:32.789Z,8.21
2019-02-11T11:05:36.689Z,8.12
2019-02-11T11:06:49.802Z,8.11
2019-02-11T11:07:46.733Z,8.04
2019-02-11T11:08:52.475Z,8.04
2019-02-11T11:10:00.782Z,8.03
2019-02-11T11:11:09.080Z,8.07
2019-02-11T11:12:11.463Z,8.04
2019-02-11T11:13:16.064Z,8.04
2019-02-11T11:14:30.606Z,8.12
2019-02-11T11:15:31.326Z,8.15
2019-02-11T11:16:34.509Z,8.14
2019-02-11T11:17:35.537Z,8.08
2019-02-11T11:18:50.394Z,8.14
2019-02-11T11:19:54.190Z,8.14
2019-02-11T11:20:51.643Z,8.10
2019-02-11T11:22:02.191Z,8.21
2019-02-11T11:23:07.731Z,8.12
2019-02-11T11:24:07.947Z,8.18
2019-02-11T11:25:15.632Z,8.17
2019-02-11T11:26:30.589Z,8.18
2019-02-11T11:27:27.109Z,8.33
2019-02-11T11:28:30.902Z,8.25
2019-02-11T11:29:47.807Z,8.26
2019-02-11T11:30:42.801Z,8.28
2019-02-11T11:31:49.973Z,8.29
2019-02-11T11:32:56.121Z,8.29
2019-02-11T11:34:01.881Z,8.33
2019-02-11T11:35:08.940Z,8.30
2019-02-11T11:36:08.942Z,8.45
2019-02-11T11:37:13.374Z,8.33
2019-02-11T11:38:25.857Z,8.33
2019-02-11T11:39:25.322Z,8.33
2019-02-11T11:40:32.013Z,8.33
2019-02-11T11:41:40.824Z,8.35
2019-02-11T11:42:48.518Z,8.39
2019-02-11T11:43:47.186Z,8.40
2019-02-11T11:44:53.647Z,8.40
2019-02-11T11:45:57.646Z,8.42
2019-02-11T11:47:00.110Z,8.42
2019-02-11T11:48:16.400Z,8.40
2019-02-11T11:49:20.807Z,8.44
2019-02-11T11:50:18.872Z,8.42
2019-02-11T11:51:32.203Z,8.48
2019-02-11T11:52:27.894Z,8.55
2019-02-11T11:53:38.761Z,8.50
2019-02-11T11:54:40.501Z,8.48
2019-02-11T11:55:49.218Z,8.63
2019-02-11T11:56:51.376Z,8.63
2019-02-11T11:57:55.074Z,8.83
2019-02-11T11:59:11.977Z,8.93
2019-02-11T12:00:03.069Z,8.93
2019-02-11T12:01:20.303Z,8.94
2019-02-11T12:02:32.790Z,9.12
2019-02-11T12:03:23.057Z,9.24
2019-02-11T12:04:37.818Z,9.31
2019-02-11T12:05:39.150Z,9.35
2019-02-11T12:06:54.105Z,9.57
2019-02-11T12:07:51.980Z,9.57
2019-02-11T12:08:53.094Z,9.50
2019-02-11T12:10:06.002Z,9.71
2019-02-11T12:11:13.737Z,9.85
2019-02-11T12:12:19.658Z,9.93
2019-02-11T12:13:23.594Z,10.01
2019-02-11T12:14:35.011Z,10.01
2019-02-11T12:15:36.451Z,10.00
2019-02-11T12:16:55.107Z,9.96
2019-02-11T12:17:53.477Z,10.00
2019-02-11T12:18:58.387Z,10.06
2019-02-11T12:19:57.483Z,10.21
2019-02-11T12:21:11.413Z,10.40
2019-02-11T12:22:17.861Z,10.51
2019-02-11T12:23:24.321Z,10.55
2019-02-11T12:24:31.412Z,10.62
2019-02-11T12:25:31.610Z,10.73
2019-02-11T12:27:05.199Z,10.77
2019-02-11T12:27:34.179Z,10.71
2019-02-11T12:28:58.868Z,10.59
2019-02-11T12:30:25.084Z,10.66
2019-02-11T12:31:18.133Z,10.58
2019-02-11T12:32:26.031Z,10.65
2019-02-11T12:33:30.943Z,10.66
2019-02-11T12:34:22.249Z,10.53
2019-02-11T12:35:51.950Z,10.44
2019-02-11T12:36:51.855Z,10.51
2019-02-11T12:37:56.891Z,10.40
2019-02-11T12:39:09.888Z,10.37
2019-02-11T12:40:01.192Z,10.33
2019-02-11T12:41:06.830Z,10.24
2019-02-11T12:41:54.360Z,10.19
2019-02-11T12:43:16.898Z,10.04
2019-02-11T12:44:13.921Z,10.12
2019-02-11T12:45:30.623Z,10.21
2019-02-11T12:46:19.062Z,11.32
2019-02-11T12:47:19.474Z,11.16
2019-02-11T12:48:35.244Z,11.47
2019-02-11T12:50:07.513Z,12.15
2019-02-11T12:51:00.558Z,12.11
2019-02-11T12:51:51.288Z,11.93
2019-02-11T12:53:34.157Z,11.78
2019-02-11T12:54:20.436Z,11.96
2019-02-11T12:55:27.613Z,12.84
2019-02-11T12:56:29.568Z,13.32
2019-02-11T12:57:24.461Z,13.55
2019-02-11T12:58:30.500Z,14.95
2019-02-11T12:59:23.658Z,16.41
2019-02-11T13:00:36.250Z,17.22
2019-02-11T13:01:37.081Z,17.28
2019-02-11T13:02:42.303Z,16.89
2019-02-11T13:03:43.132Z,16.48
2019-02-11T13:05:43.057Z,15.85
2019-02-11T13:06:14.901Z,16.11
2019-02-11T13:07:16.741Z,17.66
2019-02-11T13:08:16.341Z,18.84
2019-02-11T13:09:14.193Z,19.01
2019-02-11T13:10:17.175Z,18.90
2019-02-11T13:11:41.878Z,18.42
2019-02-11T13:12:31.216Z,17.41
2019-02-11T13:13:49.343Z,18.28
2019-02-11T13:15:42.006Z,18.64
2019-02-11T13:16:06.048Z,19.83
2019-02-11T13:17:14.060Z,20.71
2019-02-11T13:18:10.609Z,21.95
2019-02-11T13:19:21.841Z,23.05
2019-02-11T13:20:13.661Z,24.22
2019-02-11T13:21:30.672Z,25.07
2019-02-11T13:22:19.610Z,25.77
2019-02-11T13:23:55.153Z,24.98
2019-02-11T13:24:55.271Z,24.02
2019-02-11T13:25:56.509Z,23.07
2019-02-11T13:26:49.230Z,22.07
2019-02-11T13:27:58.250Z,21.29
2019-02-11T13:29:12.385Z,20.46
2019-02-11T13:30:08.809Z,19.65
2019-02-11T13:31:15.781Z,18.94
2019-02-11T13:32:20.093Z,18.21
2019-02-11T13:33:34.227Z,17.48
2019-02-11T13:34:29.327Z,17.00
2019-02-11T13:35:35.160Z,16.78
2019-02-11T13:36:38.758Z,16.85
2019-02-11T13:37:47.629Z,16.70
2019-02-11T13:38:46.872Z,16.18
2019-02-11T13:39:54.848Z,15.88
2019-02-11T13:40:58.341Z,15.51
2019-02-11T13:42:01.936Z,15.27
2019-02-11T13:43:14.627Z,15.51
2019-02-11T13:44:12.384Z,15.54
2019-02-11T13:45:20.301Z,15.70
2019-02-11T13:46:19.975Z,15.68
2019-02-11T13:47:52.241Z,15.41
2019-02-11T13:48:34.503Z,15.12
2019-02-11T13:49:46.263Z,15.13
2019-02-11T13:50:53.188Z,15.21
2019-02-11T13:51:49.194Z,15.24
2019-02-11T13:53:01.596Z,15.11
2019-02-11T13:53:59.376Z,15.23
2019-02-11T13:55:23.212Z,15.12
2019-02-11T13:56:07.309Z,15.35
2019-02-11T13:57:22.207Z,15.36
2019-02-11T13:58:25.282Z,15.51
2019-02-11T13:59:36.246Z,15.31
2019-02-11T14:00:34.204Z,15.43
2019-02-11T14:01:41.586Z,15.39
2019-02-11T14:02:50.302Z,15.24
2019-02-11T14:03:47.151Z,14.64
2019-02-11T14:05:05.162Z,14.44
2019-02-11T14:06:08.138Z,14.09
2019-02-11T14:07:18.182Z,13.77
2019-02-11T14:08:25.244Z,13.44
2019-02-11T14:10:03.959Z,13.24
2019-02-11T14:10:50.140Z,13.14
2019-02-11T14:11:29.483Z,12.92
2019-02-11T14:12:35.339Z,12.79
2019-02-11T14:14:01.145Z,12.66
2019-02-11T14:14:57.342Z,12.60
2019-02-11T14:16:03.797Z,12.38
2019-02-11T14:17:00.947Z,12.30
2019-02-11T14:18:11.511Z,12.16
2019-02-11T14:19:19.795Z,11.86
2019-02-11T14:20:27.651Z,11.83
2019-02-11T14:21:31.078Z,11.71
2019-02-11T14:22:28.422Z,11.59
2019-02-11T14:23:43.265Z,11.59
2019-02-11T14:24:46.661Z,11.36
2019-02-11T14:25:50.560Z,11.29
2019-02-11T14:26:50.453Z,11.24
2019-02-11T14:28:04.392Z,11.13
2019-02-11T14:29:04.602Z,11.01
2019-02-11T14:30:24.070Z,11.11